x

Smith Island, Wa (sisw1) Weather Station

8:00 - Sat 18th Apr 2015 All times are PDT. -7 hours from GMT.

  • Wind
    9mph, 10mph gusts
  • Air Temp 51°f
  • Sea Pressure 1024.7mb
  • Smith Island, Wa
  • Smith Island, Wa

More Historic Weather Station data

Upgrade to MSW Pro to gain access to the past 30 days of data for over 8000 Wavebouys and Weather Stations around the globe.

Join Pro

Comparision Forecast

View Surf forecast
   
sam. 04/18 8:00 9 10 mph 1024.7mb 51f
7:00 9 10 mph 1024.9mb 52f
6:00 7 9 mph 1025.4mb 54f
5:00 10 11 mph 1026mb 53f
4:00 10 11 mph 1026.5mb 54f
3:00 13 14 mph 1027.1mb 54f
2:00 6 8 mph 1027.7mb 55f
1:00 3 6 mph 1028.2mb 54f
12:00 3 5 mph 1028.6mb 54f
11:00 6 10 mph 1029mb 52f
10:00 9 11 mph 1029.2mb 51f
9:00 1 2 mph 1029.1mb 51f
8:00 1 2 mph 1029mb 51f
7:00 3 5 mph 1028.7mb 48f
6:00 2
mph
1028.3mb 48f
5:00 3
mph
1028.1mb 48f
4:00 5
mph
1027.9mb 48f
3:00 5 6 mph 1027.4mb 48f
2:00 5 6 mph 1027.2mb 49f
1:00 5 6 mph 1027mb 49f
12:00 6
mph
1026.9mb 49f
ven. 04/17 11:00 13 14 mph 1026.6mb 50f
10:00 11 16 mph 1026mb 49f
9:00 13 20 mph 1025.5mb 50f
8:00 15 20 mph 1025mb 50f
7:00 13 16 mph 1024.9mb 52f
6:00 6 7 mph 1024.7mb 53f
5:00 6 7 mph 1024.7mb 55f
4:00 10 11 mph 1024.7mb 54f
3:00 2 3 mph 1024.7mb 58f
2:00 7 8 mph 1024.8mb 54f
1:00 10 11 mph 1024.9mb 53f
12:00 6 8 mph 1025.2mb 54f
11:00 6 8 mph 1025.1mb 51f
10:00 5 8 mph 1024.3mb 51f
9:00 9 13 mph 1024.3mb 50f
8:00 9 11 mph 1024.2mb 49f
7:00 18 20 mph 1024.2mb 49f
6:00 17 20 mph 1024.2mb 48f
5:00 7 9 mph 1023.6mb 47f
4:00 16 20 mph 1023.7mb 48f
3:00 14 16 mph 1023.4mb 48f
2:00 13 14 mph 1023.7mb 48f
1:00 7 11 mph 1023.8mb 49f
12:00 7 8 mph 1023.9mb 49f
jeu. 04/16 11:00 8 9 mph 1023.8mb 49f
10:00 8 9 mph 1023.8mb 49f
9:00 7 9 mph 1023.8mb 49f
8:00 9 10 mph 1023.9mb 50f
7:00 7
mph
1024.3mb 53f
6:00 8 9 mph 1024.9mb 53f
5:00 8 9 mph 1025.7mb 53f
4:00 8 10 mph 1026.3mb 53f
3:00 3 7 mph 1027.1mb 54f
2:00 5 7 mph 1027.6mb 52f
1:00 3 5 mph 1028.3mb 51f
12:00 3 5 mph 1029.1mb 50f
11:00 2 3 mph 1029.5mb 49f
10:00 2 3 mph 1029.6mb 49f
9:00 3 5 mph 1029.9mb 47f
8:00 6
mph
1030.3mb 46f
7:00 5 6 mph 1030.1mb 45f
6:00 5 6 mph 1030mb 44f
5:00 5 7 mph 1030.2mb 46f
4:00 7 9 mph 1030.5mb 47f
3:00 7
mph
1030.8mb 47f
2:00 16 18 mph 1031.1mb 48f
1:00 11 16 mph 1031.3mb 48f
12:00 11 16 mph 1031.8mb 48f
mer. 04/15 11:00 14 17 mph 1031.9mb 49f
10:00 9 10 mph 1032.4mb 49f
9:00 2 3 mph 1032.5mb 49f
8:00 3 6 mph 1032.3mb 49f
7:00  -  1 mph 1032.3mb 51f
6:00 2 3 mph 1032.9mb 52f
5:00 3 5 mph 1033.4mb 53f
4:00 2 3 mph 1033.6mb 53f
3:00 3 5 mph 1034mb 54f
2:00 5 6 mph 1034.2mb 53f
1:00 7
mph
1034.4mb 52f
12:00 10 11 mph 1034.6mb 51f
11:00 14 15 mph 1034.5mb 50f
10:00 11 14 mph 1034.2mb 49f
9:00 7 10 mph 1033.9mb 48f
8:00 10 11 mph 1033.5mb 46f
7:00 14 16 mph 1032.9mb 46f
6:00 14 18 mph 1032.2mb 46f
5:00 16 18 mph 1031.7mb 45f